Time;durP1;ratioP1;P1;durP2;ratioP2;P2;SDS_P1;SDS_P2;PMS_P1;PMS_P2;Temp;Humidity;BMP_temperature;BMP_pressure;BME280_temperature;BME280_humidity;BME280_pressure;Samples;Min_cycle;Max_cycle;Signal;HPM_P1;HPM_P2
2020/12/31 00:00:17;;;;;;;;;;;1.40;99.90;;;;;;20892275;28;20037;-78
2020/12/31 00:10:18;;;;;;;16.10;8.63;;;1.50;99.90;;;;;;20873652;28;19916;-78
2020/12/31 00:20:19;;;;;;;;;;;1.30;99.90;;;;;;20892391;28;20710;-81
2020/12/31 00:30:20;;;;;;;12.43;7.50;;;1.30;99.90;;;;;;20889057;28;19913;-77
2020/12/31 00:40:21;;;;;;;14.30;7.50;;;1.20;99.90;;;;;;20891814;28;20563;-78
2020/12/31 00:50:24;;;;;;;;;;;1.10;99.90;;;;;;20895481;28;20116;-78
2020/12/31 01:00:26;;;;;;;13.88;7.70;;;1.10;99.90;;;;;;20875602;28;19909;-77
2020/12/31 01:10:37;;;;;;;;;;;0.90;99.90;;;;;;20883462;28;20037;-77
2020/12/31 01:20:39;;;;;;;15.20;7.55;;;0.90;99.90;;;;;;20908282;28;19951;-78
2020/12/31 01:30:39;;;;;;;16.17;7.85;;;0.50;99.90;;;;;;20911506;28;20036;-78
2020/12/31 01:40:46;;;;;;;12.25;6.55;;;0.30;99.90;;;;;;20893633;28;20033;-77
2020/12/31 01:50:47;;;;;;;14.77;7.53;;;0.20;99.90;;;;;;20908007;28;20045;-77
2020/12/31 02:00:48;;;;;;;14.90;8.35;;;0.00;99.90;;;;;;20907279;28;20029;-79
2020/12/31 02:10:49;;;;;;;25.35;9.90;;;-0.30;99.90;;;;;;20908230;28;20032;-79
2020/12/31 02:20:50;;;;;;;17.65;9.43;;;-0.40;99.90;;;;;;20913029;28;20029;-79
2020/12/31 02:30:51;;;;;;;16.50;8.38;;;-0.30;99.90;;;;;;20925717;28;20021;-80
2020/12/31 02:40:52;;;;;;;19.75;9.32;;;-0.30;99.90;;;;;;20943499;28;20021;-80
2020/12/31 02:50:52;;;;;;;17.40;8.70;;;-0.40;99.90;;;;;;20943555;28;20027;-80
2020/12/31 03:00:53;;;;;;;18.83;8.98;;;-0.50;99.90;;;;;;20922837;28;20124;-79
2020/12/31 03:10:56;;;;;;;17.20;8.35;;;-0.60;99.90;;;;;;20922454;28;20411;-80
2020/12/31 03:20:57;;;;;;;15.15;7.55;;;-0.60;99.90;;;;;;20932355;28;20033;-79
2020/12/31 03:30:58;;;;;;;24.05;7.47;;;-0.70;99.90;;;;;;20916601;28;20124;-79
2020/12/31 03:40:58;;;;;;;16.90;7.68;;;-0.90;99.90;;;;;;20935958;28;20025;-78
2020/12/31 03:50:59;;;;;;;13.18;7.43;;;-0.80;99.90;;;;;;20917657;28;20060;-79
2020/12/31 04:01:00;;;;;;;13.68;7.07;;;-1.00;99.90;;;;;;20941884;28;20028;-79
2020/12/31 04:11:01;;;;;;;13.45;7.18;;;-1.00;99.90;;;;;;20922974;28;20136;-79
2020/12/31 04:21:02;;;;;;;15.18;6.75;;;-1.00;99.90;;;;;;20902840;28;20033;-78
2020/12/31 04:31:03;;;;;;;18.42;7.85;;;-1.10;99.90;;;;;;20951118;28;20472;-78
2020/12/31 04:41:04;;;;;;;20.42;9.18;;;-1.20;99.90;;;;;;20950800;28;20139;-79
2020/12/31 04:51:11;;;;;;;17.75;8.40;;;-1.10;99.90;;;;;;20929912;28;20433;-80
2020/12/31 05:01:15;;;;;;;15.77;6.78;;;-1.10;99.90;;;;;;20928587;28;20357;-79
2020/12/31 05:11:16;;;;;;;12.90;6.57;;;-1.00;99.90;;;;;;20928069;28;20051;-80
2020/12/31 05:21:17;;;;;;;16.65;7.68;;;-1.00;99.90;;;;;;20911224;28;20057;-80
2020/12/31 05:31:18;;;;;;;14.77;7.35;;;-1.00;99.90;;;;;;20927847;28;20024;-80
2020/12/31 05:41:18;;;;;;;16.25;8.05;;;-1.10;99.90;;;;;;20894384;28;20044;-80
2020/12/31 05:51:24;;;;;;;13.93;7.13;;;-1.10;99.90;;;;;;20919450;28;20053;-79
2020/12/31 06:01:33;;;;;;;15.73;6.60;;;-1.00;99.90;;;;;;20942416;28;20514;-80
2020/12/31 06:11:37;;;;;;;17.48;7.90;;;-1.00;99.90;;;;;;20942230;28;20040;-79
2020/12/31 06:21:41;;;;;;;16.13;7.63;;;-1.20;99.90;;;;;;20925636;28;20041;-81
2020/12/31 06:31:50;;;;;;;17.75;8.35;;;-1.20;99.90;;;;;;20913356;28;20037;-80
2020/12/31 06:41:55;;;;;;;20.05;7.90;;;-1.20;99.90;;;;;;20928524;28;20227;-81
2020/12/31 06:52:20;;;;;;;16.67;8.20;;;-1.10;99.90;;;;;;20922189;28;20545;-80
2020/12/31 07:02:22;;;;;;;15.63;7.65;;;-1.00;99.90;;;;;;20926639;28;20041;-81
2020/12/31 07:12:35;;;;;;;19.27;10.35;;;-0.90;99.90;;;;;;20943697;28;20039;-81
2020/12/31 07:22:40;;;;;;;23.08;11.93;;;-0.60;99.90;;;;;;20941392;28;20033;-79
2020/12/31 07:33:04;;;;;;;25.48;12.50;;;-0.60;99.90;;;;;;20939108;28;20029;-79
2020/12/31 07:43:07;;;;;;;27.30;14.02;;;-0.60;99.90;;;;;;20920452;28;20033;-79
2020/12/31 07:53:12;;;;;;;33.35;14.55;;;-0.60;99.90;;;;;;20903267;28;20033;-81
2020/12/31 08:03:13;;;;;;;30.23;13.25;;;-0.50;99.90;;;;;;20921269;28;20029;-81
2020/12/31 08:13:17;;;;;;;25.80;11.85;;;-0.40;99.90;;;;;;20939363;28;20127;-81
2020/12/31 08:23:25;;;;;;;24.90;12.48;;;-0.20;99.90;;;;;;20924706;28;20029;-81
2020/12/31 08:33:27;;;;;;;23.45;11.40;;;-0.10;99.90;;;;;;20935823;28;20438;-78
2020/12/31 08:43:37;;;;;;;25.73;12.93;;;0.10;99.90;;;;;;20911322;28;20060;-78
2020/12/31 08:53:48;;;;;;;45.70;19.03;;;0.10;99.90;;;;;;20892772;28;20103;-76
2020/12/31 09:03:49;;;;;;;;;;;0.10;99.90;;;;;;20892958;28;20033;-78
2020/12/31 09:13:50;;;;;;;30.60;14.23;;;0.20;99.90;;;;;;20893519;28;19913;-79
2020/12/31 09:23:51;;;;;;;36.63;16.92;;;0.10;99.90;;;;;;20906091;28;20033;-78
2020/12/31 09:33:52;;;;;;;34.45;15.82;;;0.20;99.90;;;;;;20909023;28;20025;-78
2020/12/31 09:43:53;;;;;;;33.47;15.57;;;0.30;99.90;;;;;;20907607;28;20071;-79
2020/12/31 09:53:53;;;;;;;30.02;15.10;;;0.30;99.90;;;;;;20889112;28;20368;-78
2020/12/31 10:03:54;;;;;;;25.00;13.43;;;0.40;99.90;;;;;;20906650;28;20037;-78
2020/12/31 10:13:55;;;;;;;18.13;9.70;;;0.60;99.90;;;;;;20906641;28;20036;-79
2020/12/31 10:23:59;;;;;;;19.83;9.50;;;0.90;99.90;;;;;;20888360;28;20087;-79
2020/12/31 10:34:00;;;;;;;18.02;9.05;;;1.10;99.90;;;;;;20887954;28;20057;-78
2020/12/31 10:44:00;;;;;;;17.20;9.05;;;1.20;99.90;;;;;;20896420;28;20029;-77
2020/12/31 10:54:02;;;;;;;19.65;10.43;;;1.40;99.90;;;;;;20885279;28;20025;-78
2020/12/31 11:04:02;;;;;;;19.45;9.82;;;1.40;99.90;;;;;;20903140;28;20530;-77
2020/12/31 11:14:03;;;;;;;18.73;10.77;;;1.50;99.90;;;;;;20883928;28;20068;-79
2020/12/31 11:24:04;;;;;;;;;;;1.70;99.90;;;;;;20899721;28;20040;-78
2020/12/31 11:34:05;;;;;;;22.97;13.37;;;1.70;99.90;;;;;;20898676;28;19915;-77
2020/12/31 11:44:06;;;;;;;;;;;1.80;99.90;;;;;;20906317;28;20290;-77
2020/12/31 11:54:07;;;;;;;32.17;16.90;;;1.70;99.90;;;;;;20899175;28;20305;-77
2020/12/31 12:04:08;;;;;;;25.33;14.10;;;1.70;99.90;;;;;;20880302;28;20116;-77
2020/12/31 12:14:09;;;;;;;;;;;1.80;99.90;;;;;;20876660;28;20037;-75
2020/12/31 12:24:10;;;;;;;25.92;14.02;;;2.10;99.90;;;;;;20892279;28;19923;-76
2020/12/31 12:34:11;;;;;;;30.08;15.95;;;2.20;99.90;;;;;;20873389;28;20110;-78
2020/12/31 12:44:12;;;;;;;31.35;13.48;;;2.40;99.90;;;;;;20873551;28;20053;-76
2020/12/31 12:54:13;;;;;;;;;;;2.40;99.90;;;;;;20889439;28;20037;-77
2020/12/31 13:04:14;;;;;;;15.88;8.88;;;2.50;99.90;;;;;;20887883;28;20346;-76
2020/12/31 13:14:16;;;;;;;10.23;6.80;;;2.60;99.90;;;;;;20890129;28;20124;-75
2020/12/31 13:24:17;;;;;;;14.57;7.53;;;2.50;99.90;;;;;;20893130;28;20102;-75
2020/12/31 13:34:18;;;;;;;12.35;6.47;;;2.60;99.90;;;;;;20870957;28;20041;-75
2020/12/31 13:44:19;;;;;;;8.77;5.47;;;2.70;99.90;;;;;;20904619;28;20068;-75
2020/12/31 13:54:20;;;;;;;10.85;6.65;;;2.70;99.90;;;;;;20905788;28;20021;-76
2020/12/31 14:04:23;;;;;;;11.55;6.32;;;2.70;99.90;;;;;;20888790;28;20056;-75
2020/12/31 14:14:24;;;;;;;11.45;7.20;;;2.60;99.90;;;;;;20894731;28;20028;-76
2020/12/31 14:24:25;;;;;;;;;;;2.50;99.90;;;;;;20927107;28;20059;-77
2020/12/31 14:34:26;;;;;;;12.73;7.53;;;2.50;99.90;;;;;;20944284;28;19909;-79
2020/12/31 14:44:27;;;;;;;;;;;2.20;99.90;;;;;;20967936;28;20052;-79
2020/12/31 14:54:28;;;;;;;18.80;9.80;;;1.80;99.90;;;;;;20960807;28;19973;-79
2020/12/31 15:04:28;;;;;;;;;;;1.50;99.90;;;;;;20964351;28;20375;-79
2020/12/31 15:14:29;;;;;;;18.55;10.15;;;1.60;99.90;;;;;;20964047;28;19915;-79
2020/12/31 15:24:30;;;;;;;18.23;10.30;;;1.60;99.90;;;;;;20938009;28;20037;-78
2020/12/31 15:34:34;;;;;;;25.23;13.88;;;1.60;99.90;;;;;;20927451;28;20029;-78
2020/12/31 15:44:34;;;;;;;25.42;11.63;;;1.60;99.90;;;;;;20929481;28;20627;-79
2020/12/31 15:54:35;;;;;;;75.35;30.50;;;1.60;99.90;;;;;;20951087;28;20037;-79
2020/12/31 16:04:36;;;;;;;;;;;1.60;99.90;;;;;;20959910;28;20037;-78
2020/12/31 16:14:38;;;;;;;16.33;9.43;;;1.60;99.90;;;;;;20911758;28;19984;-80
2020/12/31 16:24:39;;;;;;;24.17;12.95;;;1.70;99.90;;;;;;20905556;28;20033;-79
2020/12/31 16:34:40;;;;;;;;;;;1.70;99.90;;;;;;20924503;28;20044;-79
2020/12/31 16:44:42;;;;;;;16.40;9.52;;;1.60;99.90;;;;;;20918940;28;20376;-78
2020/12/31 16:54:42;;;;;;;28.83;13.10;;;1.60;99.90;;;;;;20954819;28;20093;-79
2020/12/31 17:04:43;;;;;;;24.55;12.65;;;1.30;99.90;;;;;;20922832;28;20029;-78
2020/12/31 17:14:44;;;;;;;24.60;13.60;;;1.10;99.90;;;;;;20912822;28;20087;-78
2020/12/31 17:24:45;;;;;;;27.92;14.75;;;1.00;99.90;;;;;;20912948;28;20033;-78
2020/12/31 17:34:46;;;;;;;32.40;14.93;;;1.00;99.90;;;;;;20898645;28;20025;-78
2020/12/31 17:44:47;;;;;;;33.33;16.30;;;1.10;99.90;;;;;;20858785;28;20491;-77
2020/12/31 17:54:48;;;;;;;24.17;12.43;;;0.90;99.90;;;;;;20892319;28;21381;-78
2020/12/31 18:04:49;;;;;;;29.00;14.23;;;0.90;99.90;;;;;;20917737;28;20037;-77
2020/12/31 18:14:50;;;;;;;34.65;17.30;;;0.90;99.90;;;;;;20902693;28;20037;-79
2020/12/31 18:24:51;;;;;;;35.97;16.77;;;0.80;99.90;;;;;;20905699;28;20037;-77
2020/12/31 18:34:52;;;;;;;36.22;16.60;;;0.80;99.90;;;;;;20911096;28;20033;-78
2020/12/31 18:44:53;;;;;;;32.45;15.57;;;0.80;99.90;;;;;;20909482;28;20081;-78
2020/12/31 18:54:54;;;;;;;36.92;18.15;;;0.90;99.90;;;;;;20914391;28;20029;-80
2020/12/31 19:04:55;;;;;;;35.40;15.80;;;0.80;99.90;;;;;;20931824;28;20037;-77
2020/12/31 19:14:56;;;;;;;34.47;15.93;;;0.80;99.90;;;;;;20907125;28;20028;-79
2020/12/31 19:24:57;;;;;;;38.20;18.75;;;0.80;99.90;;;;;;20931674;28;20060;-77
2020/12/31 19:34:59;;;;;;;46.85;22.52;;;0.80;99.90;;;;;;20926939;28;20029;-77
2020/12/31 19:45:00;;;;;;;45.33;20.33;;;0.70;99.90;;;;;;20916046;28;20028;-77
2020/12/31 19:55:04;;;;;;;49.30;22.23;;;0.70;99.90;;;;;;20933638;28;20483;-79
2020/12/31 20:05:09;;;;;;;53.85;24.17;;;0.90;99.90;;;;;;20923210;28;20502;-81
2020/12/31 20:15:10;;;;;;;53.75;23.23;;;0.90;99.90;;;;;;20929339;28;20067;-81
2020/12/31 20:25:11;;;;;;;45.30;21.17;;;0.90;99.90;;;;;;20924494;28;20048;-79
2020/12/31 20:35:13;;;;;;;44.17;21.63;;;1.10;99.90;;;;;;20923743;28;20037;-81
2020/12/31 20:45:14;;;;;;;40.28;21.23;;;1.10;99.90;;;;;;20919860;28;20507;-78
2020/12/31 20:55:15;;;;;;;32.83;17.15;;;1.10;99.90;;;;;;20885660;28;20039;-82
2020/12/31 21:05:22;;;;;;;39.92;23.33;;;1.20;99.90;;;;;;20929380;28;20041;-80
2020/12/31 21:15:22;;;;;;;30.27;14.88;;;1.40;99.90;;;;;;20914498;28;20032;-77
2020/12/31 21:25:23;;;;;;;165.57;90.00;;;1.40;99.90;;;;;;20898640;28;20039;-78
2020/12/31 21:35:24;;;;;;;;;;;1.40;99.90;;;;;;20919218;28;20086;-80
2020/12/31 21:45:25;;;;;;;25.95;14.75;;;1.90;99.90;;;;;;20919696;28;19927;-81
2020/12/31 21:55:26;;;;;;;29.08;15.05;;;1.60;99.90;;;;;;20911797;28;20033;-78
2020/12/31 22:05:27;;;;;;;37.10;19.00;;;1.20;99.90;;;;;;20894472;28;20528;-79
2020/12/31 22:15:29;;;;;;;34.30;18.17;;;1.40;99.90;;;;;;20896352;28;20036;-77
2020/12/31 22:25:30;;;;;;;34.08;17.33;;;1.40;99.90;;;;;;20908708;28;20527;-78
2020/12/31 22:35:31;;;;;;;36.83;17.88;;;1.50;99.90;;;;;;20906907;28;20098;-77
2020/12/31 22:45:36;;;;;;;34.15;17.23;;;1.30;99.90;;;;;;20913935;28;20036;-77
2020/12/31 22:55:37;;;;;;;35.22;17.83;;;1.10;99.90;;;;;;20905443;28;20388;-76
2020/12/31 23:05:38;;;;;;;35.47;16.25;;;1.00;99.90;;;;;;20937453;28;20036;-77
2020/12/31 23:15:38;;;;;;;;;;;1.20;99.90;;;;;;21002950;28;20028;-77
2020/12/31 23:25:39;;;;;;;31.60;16.13;;;1.30;99.90;;;;;;20932991;28;19997;-77
2020/12/31 23:35:40;;;;;;;;;;;1.20;99.90;;;;;;20934008;28;20302;-77
2020/12/31 23:45:41;;;;;;;29.42;13.73;;;1.00;99.90;;;;;;20923870;28;19939;-77
2020/12/31 23:55:42;;;;;;;;;;;1.10;99.90;;;;;;20905558;28;20134;-77
